createdAt,value
2022-08-19T00:01:40.473Z,99142.00
2022-08-19T00:04:11.399Z,99141.19
2022-08-19T00:06:40.579Z,99145.28
2022-08-19T00:09:10.621Z,99142.00
2022-08-19T00:11:38.789Z,99145.88
2022-08-19T00:14:08.397Z,99147.53
2022-08-19T00:16:36.749Z,99137.91
2022-08-19T00:19:04.672Z,99157.38
2022-08-19T00:21:32.383Z,99152.72
2022-08-19T00:24:00.642Z,99148.91
2022-08-19T00:26:29.491Z,99128.66
2022-08-19T00:28:57.369Z,99149.72
2022-08-19T00:31:26.164Z,99146.44
2022-08-19T00:33:53.595Z,99142.03
2022-08-19T00:36:21.695Z,99148.88
2022-08-19T00:38:52.656Z,99150.25
2022-08-19T00:41:22.258Z,99150.81
2022-08-19T00:44:07.220Z,99144.47
2022-08-19T00:46:37.654Z,99142.34
2022-08-19T00:49:22.388Z,99137.16
2022-08-19T00:51:58.365Z,99123.13
2022-08-19T00:54:31.236Z,99134.66
2022-08-19T00:57:00.459Z,99136.56
2022-08-19T01:00:00.476Z,99136.56
2022-08-19T01:02:17.811Z,99149.16
2022-08-19T01:04:45.544Z,99139.87
2022-08-19T01:07:15.173Z,99136.84
2022-08-19T01:09:45.290Z,99129.47
2022-08-19T01:12:12.833Z,99125.34
2022-08-19T01:14:41.362Z,99129.75
2022-08-19T01:17:10.580Z,99127.56
2022-08-19T01:19:43.759Z,99128.34
2022-08-19T01:22:21.612Z,99129.16
2022-08-19T01:24:54.000Z,99130.56
2022-08-19T01:27:23.033Z,99128.62
2022-08-19T01:29:52.126Z,99132.72
2022-08-19T01:32:33.178Z,99121.53
2022-08-19T01:35:03.733Z,99128.09
2022-08-19T01:37:32.375Z,99120.69
2022-08-19T01:39:59.850Z,99117.69
2022-08-19T01:42:30.575Z,99107.03
2022-08-19T01:44:58.430Z,99107.84
2022-08-19T01:47:25.870Z,99096.34
2022-08-19T01:49:53.578Z,99098.00
2022-08-19T01:52:21.060Z,99099.38
2022-08-19T01:54:48.479Z,99093.59
2022-08-19T01:57:16.750Z,99090.31
2022-08-19T01:59:45.120Z,99080.22
2022-08-19T02:02:12.866Z,99071.75
2022-08-19T02:04:40.959Z,99069.03
2022-08-19T02:07:09.153Z,99077.75
2022-08-19T02:09:37.093Z,99083.22
2022-08-19T02:12:05.853Z,99070.38
2022-08-19T02:14:35.265Z,99081.06
2022-08-19T02:17:03.527Z,99082.12
2022-08-19T02:19:33.529Z,99080.50
2022-08-19T02:22:01.374Z,99077.22
2022-08-19T02:24:28.848Z,99057.50
2022-08-19T02:26:56.767Z,99056.72
2022-08-19T02:29:24.187Z,99053.12
2022-08-19T02:31:52.684Z,99055.06
2022-08-19T02:34:20.467Z,99065.44
2022-08-19T02:36:51.958Z,99070.38
2022-08-19T02:39:20.385Z,99066.00
2022-08-19T02:41:47.814Z,99076.94
2022-08-19T02:44:29.969Z,99070.38
2022-08-19T02:46:59.129Z,99071.75
2022-08-19T02:49:26.567Z,99085.41
2022-08-19T02:51:54.015Z,99074.47
2022-08-19T02:54:21.730Z,99082.69
2022-08-19T02:56:50.101Z,99090.84
2022-08-19T02:59:17.559Z,99094.09
2022-08-19T03:01:48.070Z,99092.81
2022-08-19T03:04:16.645Z,99091.72
2022-08-19T03:06:46.115Z,99090.81
2022-08-19T03:09:14.969Z,99081.59
2022-08-19T03:11:42.388Z,99094.16
2022-08-19T03:14:10.941Z,99096.28
2022-08-19T03:16:50.736Z,99103.16
2022-08-19T03:19:19.542Z,99109.97
2022-08-19T03:21:47.321Z,99109.41
2022-08-19T03:24:16.415Z,99116.03
2022-08-19T03:26:47.061Z,99115.44
2022-08-19T03:29:15.988Z,99115.13
2022-08-19T03:31:57.612Z,99121.41
2022-08-19T03:34:29.415Z,99120.59
2022-08-19T03:36:59.986Z,99115.66
2022-08-19T03:39:28.293Z,99118.13
2022-08-19T03:42:29.273Z,99122.22
2022-08-19T03:44:51.054Z,99124.16
2022-08-19T03:47:19.494Z,99126.84
2022-08-19T03:49:47.347Z,99131.81
2022-08-19T03:52:15.257Z,99131.50
2022-08-19T03:54:43.047Z,99135.09
2022-08-19T03:57:10.556Z,99124.16
2022-08-19T03:59:38.853Z,99133.72
2022-08-19T04:02:11.921Z,99126.84
2022-08-19T04:04:41.251Z,99130.09
2022-08-19T04:07:10.464Z,99136.94
2022-08-19T04:09:38.118Z,99145.94
2022-08-19T04:12:06.604Z,99143.81
2022-08-19T04:14:34.724Z,99142.72
2022-08-19T04:17:05.635Z,99148.16
2022-08-19T04:19:35.463Z,99153.06
2022-08-19T04:22:03.612Z,99152.28
2022-08-19T04:24:31.355Z,99147.94
2022-08-19T04:27:01.201Z,99145.72
2022-08-19T04:29:28.881Z,99153.91
2022-08-19T04:31:57.324Z,99156.66
2022-08-19T04:34:27.218Z,99159.66
2022-08-19T04:36:56.021Z,99159.66
2022-08-19T04:39:48.057Z,99156.34
2022-08-19T04:42:36.616Z,99161.31
2022-08-19T04:45:12.518Z,99155.25
2022-08-19T04:47:47.444Z,99159.69
2022-08-19T04:50:19.814Z,99159.66
2022-08-19T04:52:47.628Z,99156.94
2022-08-19T04:55:15.505Z,99167.91
2022-08-19T04:57:43.039Z,99160.50
2022-08-19T05:00:11.632Z,99167.66
2022-08-19T05:02:39.799Z,99178.84
2022-08-19T05:05:07.775Z,99175.63
2022-08-19T05:07:35.807Z,99166.31
2022-08-19T05:10:05.859Z,99173.19
2022-08-19T05:12:33.350Z,99177.25
2022-08-19T05:15:01.786Z,99171.53
2022-08-19T05:17:33.299Z,99163.06
2022-08-19T05:20:25.071Z,99164.75
2022-08-19T05:22:53.402Z,99165.28
2022-08-19T05:25:22.662Z,99171.31
2022-08-19T05:27:50.543Z,99177.00
2022-08-19T05:30:18.628Z,99171.56
2022-08-19T05:32:54.038Z,99168.28
2022-08-19T05:35:25.156Z,99175.69
2022-08-19T05:37:55.215Z,99173.47
2022-08-19T05:40:26.819Z,99174.03
2022-08-19T05:42:55.470Z,99179.53
2022-08-19T05:45:23.040Z,99173.75
2022-08-19T05:47:50.413Z,99173.50
2022-08-19T05:50:18.653Z,99176.78
2022-08-19T05:52:54.365Z,99176.78
2022-08-19T05:55:23.408Z,99172.72
2022-08-19T05:57:50.825Z,99175.16
2022-08-19T06:00:22.655Z,99176.78
2022-08-19T06:02:52.598Z,99174.91
2022-08-19T06:05:21.127Z,99179.53
2022-08-19T06:07:48.665Z,99177.63
2022-08-19T06:10:16.535Z,99171.88
2022-08-19T06:12:43.942Z,99158.69
2022-08-19T06:15:13.655Z,99159.25
2022-08-19T06:17:42.759Z,99161.44
2022-08-19T06:20:14.535Z,99163.34
2022-08-19T06:22:44.235Z,99157.88
2022-08-19T06:25:12.921Z,99155.37
2022-08-19T06:27:53.366Z,99157.38
2022-08-19T06:30:29.083Z,99155.37
2022-08-19T06:32:56.904Z,99149.38
2022-08-19T06:35:24.378Z,99151.53
2022-08-19T06:37:53.615Z,99146.34
2022-08-19T06:40:21.258Z,99143.31
2022-08-19T06:42:54.292Z,99137.19
2022-08-19T06:45:34.498Z,99144.12
2022-08-19T06:48:03.800Z,99138.06
2022-08-19T06:50:31.689Z,99144.84
2022-08-19T06:53:03.572Z,99155.25
2022-08-19T06:55:33.315Z,99152.69
2022-08-19T06:58:05.519Z,99162.91
2022-08-19T07:00:34.041Z,99176.78
2022-08-19T07:03:06.021Z,99176.50
2022-08-19T07:05:41.273Z,99185.84
2022-08-19T07:08:14.185Z,99185.81
2022-08-19T07:10:46.070Z,99183.09
2022-08-19T07:13:13.716Z,99187.31
2022-08-19T07:15:41.416Z,99194.13
2022-08-19T07:18:11.921Z,99186.34
2022-08-19T07:20:41.831Z,99199.53
2022-08-19T07:23:16.084Z,99199.41
2022-08-19T07:25:45.006Z,99203.91
2022-08-19T07:28:24.252Z,99186.37
2022-08-19T07:30:53.288Z,99191.75
2022-08-19T07:33:21.299Z,99188.72
2022-08-19T07:35:48.780Z,99187.06
2022-08-19T07:38:16.703Z,99189.75
2022-08-19T07:40:47.247Z,99192.34
2022-08-19T07:43:17.744Z,99175.38
2022-08-19T07:45:51.387Z,99178.78
2022-08-19T07:48:19.080Z,99178.78
2022-08-19T07:50:46.519Z,99189.66
2022-08-19T07:53:14.241Z,99185.41
2022-08-19T07:55:43.875Z,99185.47
2022-08-19T07:58:18.587Z,99192.56
2022-08-19T08:00:48.800Z,99202.94
2022-08-19T08:03:19.432Z,99193.44
2022-08-19T08:06:06.203Z,99194.88
2022-08-19T08:08:52.826Z,99194.25
2022-08-19T08:11:21.122Z,99189.41
2022-08-19T08:14:00.811Z,99186.88
2022-08-19T08:16:32.242Z,99190.06
2022-08-19T08:19:00.403Z,99184.50
2022-08-19T08:21:28.880Z,99192.78
2022-08-19T08:23:56.750Z,99198.88
2022-08-19T08:26:26.054Z,99189.00
2022-08-19T08:28:54.078Z,99190.84
2022-08-19T08:31:21.569Z,99195.81
2022-08-19T08:33:49.442Z,99187.16
2022-08-19T08:36:17.698Z,99186.69
2022-08-19T08:38:49.091Z,99184.09
2022-08-19T08:41:27.094Z,99172.88
2022-08-19T08:43:58.465Z,99162.09
2022-08-19T08:46:49.631Z,99167.44
2022-08-19T08:49:29.254Z,99169.87
2022-08-19T08:52:10.937Z,99179.09
2022-08-19T08:54:48.934Z,99183.03
2022-08-19T08:57:37.045Z,99179.91
2022-08-19T09:00:15.622Z,99166.56
2022-08-19T09:02:44.671Z,99165.66
2022-08-19T09:05:22.250Z,99157.28
2022-08-19T09:08:06.897Z,99157.88
2022-08-19T09:10:49.831Z,99161.75
2022-08-19T09:13:37.939Z,99159.72
2022-08-19T09:16:17.542Z,99161.88
2022-08-19T09:18:54.924Z,99156.84
2022-08-19T09:21:26.037Z,99157.16
2022-08-19T09:23:59.586Z,99154.41
2022-08-19T09:26:47.421Z,99144.91
2022-08-19T09:29:16.027Z,99148.16
2022-08-19T09:31:45.209Z,99151.81
2022-08-19T09:34:21.397Z,99136.50
2022-08-19T09:36:54.576Z,99144.00
2022-08-19T09:39:23.016Z,99145.78
2022-08-19T09:41:51.280Z,99144.06
2022-08-19T09:44:19.258Z,99132.19
2022-08-19T09:46:48.399Z,99138.03
2022-08-19T09:49:22.772Z,99137.81
2022-08-19T09:51:52.632Z,99121.47
2022-08-19T09:54:23.539Z,99126.38
2022-08-19T09:56:53.905Z,99125.84
2022-08-19T09:59:22.005Z,99116.00
2022-08-19T10:01:49.617Z,99121.69
2022-08-19T10:04:20.376Z,99121.62
2022-08-19T10:06:53.457Z,99132.31
2022-08-19T10:09:33.508Z,99120.50
2022-08-19T10:12:03.321Z,99118.38
2022-08-19T10:14:31.835Z,99109.53
2022-08-19T10:17:01.302Z,99105.09
2022-08-19T10:19:41.100Z,99113.59
2022-08-19T10:22:23.962Z,99112.97
2022-08-19T10:24:54.101Z,99108.94
2022-08-19T10:27:22.232Z,99109.34
2022-08-19T10:29:50.028Z,99103.91
2022-08-19T10:32:17.824Z,99107.91
2022-08-19T10:34:48.672Z,99112.47
2022-08-19T10:37:28.796Z,99111.44
2022-08-19T10:39:59.011Z,99112.94
2022-08-19T10:42:26.529Z,99108.69
2022-08-19T10:44:54.106Z,99107.44
2022-08-19T10:47:24.961Z,99114.28
2022-08-19T10:50:13.612Z,99102.97
2022-08-19T10:52:49.874Z,99097.09
2022-08-19T10:55:43.253Z,99106.53
2022-08-19T10:58:16.435Z,99104.13
2022-08-19T11:00:44.955Z,99103.63
2022-08-19T11:03:12.952Z,99102.47
2022-08-19T11:05:40.996Z,99105.91
2022-08-19T11:08:23.074Z,99104.28
2022-08-19T11:11:01.712Z,99108.34
2022-08-19T11:13:33.403Z,99111.91
2022-08-19T11:16:07.321Z,99113.00
2022-08-19T11:18:40.596Z,99108.78
2022-08-19T11:21:20.112Z,99107.13
2022-08-19T11:23:50.963Z,99112.66
2022-08-19T11:26:20.449Z,99121.41
2022-08-19T11:28:47.986Z,99119.72
2022-08-19T11:31:18.424Z,99119.72
2022-08-19T11:33:47.937Z,99105.44
2022-08-19T11:36:17.105Z,99112.06
2022-08-19T11:38:46.057Z,99111.56
2022-08-19T11:41:16.102Z,99111.22
2022-08-19T11:43:43.740Z,99098.97
2022-08-19T11:46:14.725Z,99087.31
2022-08-19T11:48:43.024Z,99095.41
2022-08-19T11:51:13.615Z,99088.34
2022-08-19T11:53:41.916Z,99086.63
2022-08-19T11:56:11.781Z,99087.59
2022-08-19T11:58:40.326Z,99089.50
2022-08-19T12:01:09.619Z,99082.84
2022-08-19T12:03:38.283Z,99097.44
2022-08-19T12:06:07.935Z,99096.75
2022-08-19T12:08:35.490Z,99093.44
2022-08-19T12:11:03.210Z,99095.69
2022-08-19T12:13:31.891Z,99085.47
2022-08-19T12:16:06.438Z,99094.69
2022-08-19T12:18:34.785Z,99094.00
2022-08-19T12:21:02.434Z,99097.25
2022-08-19T12:23:30.269Z,99099.34
2022-08-19T12:25:58.319Z,99094.03
2022-08-19T12:28:26.280Z,99096.28
2022-08-19T12:30:54.457Z,99087.66
2022-08-19T12:33:25.991Z,99090.59
2022-08-19T12:35:53.472Z,99083.72
2022-08-19T12:38:21.001Z,99075.00
2022-08-19T12:40:49.565Z,99063.91
2022-08-19T12:43:17.035Z,99068.28
2022-08-19T12:45:47.075Z,99068.66
2022-08-19T12:48:33.151Z,99056.84
2022-08-19T12:51:07.617Z,99060.16
2022-08-19T12:53:35.308Z,99050.13
2022-08-19T12:56:08.156Z,99054.63
2022-08-19T12:58:49.051Z,99063.25
2022-08-19T13:01:20.438Z,99054.88
2022-08-19T13:03:53.162Z,99051.59
2022-08-19T13:06:20.937Z,99053.97
2022-08-19T13:08:48.461Z,99045.22
2022-08-19T13:11:18.818Z,99060.25
2022-08-19T13:13:48.390Z,99048.84
2022-08-19T13:16:16.162Z,99048.37
2022-08-19T13:18:48.312Z,99048.00
2022-08-19T13:21:16.294Z,99045.59
2022-08-19T13:23:44.299Z,99046.50
2022-08-19T13:26:14.372Z,99043.84
2022-08-19T13:29:02.694Z,99051.59
2022-08-19T13:31:51.950Z,99053.56
2022-08-19T13:34:27.077Z,99055.28
2022-08-19T13:36:58.804Z,99054.97
2022-08-19T13:39:26.721Z,99065.69
2022-08-19T13:41:54.225Z,99074.59
2022-08-19T13:44:22.032Z,99071.47
2022-08-19T13:46:53.984Z,99085.87
2022-08-19T13:49:24.077Z,99092.44
2022-08-19T13:51:51.808Z,99101.34
2022-08-19T13:54:19.205Z,99108.81
2022-08-19T13:56:46.965Z,99120.53
2022-08-19T13:59:14.852Z,99115.38
2022-08-19T14:01:42.699Z,99100.69
2022-08-19T14:04:10.542Z,99102.47
2022-08-19T14:06:38.064Z,99090.94
2022-08-19T14:09:06.635Z,99096.78
2022-08-19T14:11:34.321Z,99095.63
2022-08-19T14:14:01.782Z,99088.88
2022-08-19T14:16:31.343Z,99104.38
2022-08-19T14:18:59.233Z,99084.00
2022-08-19T14:21:27.204Z,99074.88
2022-08-19T14:23:55.059Z,99075.75
2022-08-19T14:26:23.513Z,99068.69
2022-08-19T14:28:53.773Z,99076.72
2022-08-19T14:31:22.473Z,99073.91
2022-08-19T14:33:51.395Z,99064.81
2022-08-19T14:36:20.707Z,99075.84
2022-08-19T14:38:49.661Z,99067.22
2022-08-19T14:41:20.924Z,99079.03
2022-08-19T14:43:51.111Z,99085.34
2022-08-19T14:46:21.702Z,99089.59
2022-08-19T14:48:51.725Z,99092.91
2022-08-19T14:51:21.371Z,99095.06
2022-08-19T14:53:52.349Z,99096.03
2022-08-19T14:56:23.864Z,99091.09
2022-08-19T14:58:54.357Z,99082.78
2022-08-19T15:01:23.217Z,99088.19
2022-08-19T15:03:53.749Z,99091.78
2022-08-19T15:06:23.199Z,99087.81
2022-08-19T15:08:52.801Z,99098.59
2022-08-19T15:11:23.659Z,99105.03
2022-08-19T15:13:52.192Z,99107.69
2022-08-19T15:16:20.251Z,99117.69
2022-08-19T15:18:51.272Z,99126.88
2022-08-19T15:21:26.737Z,99130.22
2022-08-19T15:23:57.221Z,99141.34
2022-08-19T15:26:26.185Z,99141.34
2022-08-19T15:28:53.630Z,99154.03
2022-08-19T15:31:28.011Z,99151.75
2022-08-19T15:33:58.842Z,99147.75
2022-08-19T15:36:27.421Z,99132.53
2022-08-19T15:38:56.195Z,99116.44
2022-08-19T15:41:30.591Z,99093.72
2022-08-19T15:44:04.775Z,99082.84
2022-08-19T15:46:33.964Z,99087.28
2022-08-19T15:49:01.985Z,99092.09
2022-08-19T15:51:31.516Z,99077.59
2022-08-19T15:54:00.161Z,99071.66
2022-08-19T15:56:57.664Z,99071.56
2022-08-19T15:59:47.427Z,99066.75
2022-08-19T16:02:35.127Z,99063.03
2022-08-19T16:05:26.061Z,99059.09
2022-08-19T16:07:54.673Z,99056.13
2022-08-19T16:10:26.298Z,99050.41
2022-08-19T16:12:56.918Z,99057.50
2022-08-19T16:15:27.994Z,99051.16
2022-08-19T16:17:57.423Z,99052.12
2022-08-19T16:20:28.004Z,99055.00
2022-08-19T16:22:58.582Z,99069.13
2022-08-19T16:25:30.075Z,99071.00
2022-08-19T16:28:06.402Z,99073.84
2022-08-19T16:30:35.355Z,99083.81
2022-08-19T16:33:02.936Z,99098.91
2022-08-19T16:35:32.286Z,99117.78
2022-08-19T16:38:00.119Z,99133.13
2022-08-19T16:40:27.947Z,99156.84
2022-08-19T16:42:56.536Z,99168.44
2022-08-19T16:45:24.403Z,99168.81
2022-08-19T16:47:52.074Z,99176.03
2022-08-19T16:50:25.386Z,99186.03
2022-08-19T16:53:07.447Z,99188.09
2022-08-19T16:55:34.874Z,99175.19
2022-08-19T16:58:04.928Z,99188.97
2022-08-19T17:00:33.193Z,99197.50
2022-08-19T17:03:14.734Z,99200.91
2022-08-19T17:05:43.522Z,99216.84
2022-08-19T17:08:11.034Z,99195.75
2022-08-19T17:10:39.053Z,99152.03
2022-08-19T17:13:07.425Z,99109.53
2022-08-19T17:15:35.070Z,99067.59
2022-08-19T17:18:04.256Z,99047.75
2022-08-19T17:20:33.104Z,99022.91
2022-08-19T17:23:00.908Z,99020.84
2022-08-19T17:25:31.049Z,99018.84
2022-08-19T17:28:07.926Z,99022.34
2022-08-19T17:30:35.454Z,99011.72
2022-08-19T17:33:04.458Z,99005.22
2022-08-19T17:35:32.658Z,98981.47
2022-08-19T17:38:08.061Z,98960.09
2022-08-19T17:40:39.329Z,98963.16
2022-08-19T17:43:08.841Z,98968.53
2022-08-19T17:45:36.965Z,98959.81
2022-08-19T17:48:05.296Z,98972.50
2022-08-19T17:50:35.180Z,98960.47
2022-08-19T17:53:04.454Z,98976.09
2022-08-19T17:55:34.276Z,98980.13
2022-08-19T17:58:05.091Z,98971.56
2022-08-19T18:00:35.960Z,99005.69
2022-08-19T18:03:05.686Z,99062.72
2022-08-19T18:05:40.392Z,99128.38
2022-08-19T18:08:10.564Z,99184.38
2022-08-19T18:10:38.323Z,99206.25
2022-08-19T18:13:17.696Z,99194.06
2022-08-19T18:15:45.638Z,99161.41
2022-08-19T18:18:15.394Z,99146.66
2022-08-19T18:20:44.204Z,99166.09
2022-08-19T18:23:43.852Z,99213.75
2022-08-19T18:26:00.183Z,99232.41
2022-08-19T18:28:27.997Z,99275.53
2022-08-19T18:30:56.350Z,99339.81
2022-08-19T18:33:25.452Z,99363.91
2022-08-19T18:35:53.320Z,99353.09
2022-08-19T18:38:40.969Z,99338.59
2022-08-19T18:41:27.812Z,99336.94
2022-08-19T18:44:13.749Z,99358.78
2022-08-19T18:47:00.119Z,99370.16
2022-08-19T18:49:30.421Z,99406.03
2022-08-19T18:51:58.655Z,99402.41
2022-08-19T18:54:29.004Z,99350.34
2022-08-19T18:56:56.515Z,99355.53
2022-08-19T18:59:27.067Z,99343.88
2022-08-19T19:01:57.227Z,99287.97
2022-08-19T19:04:37.338Z,99272.09
2022-08-19T19:07:06.158Z,99225.31
2022-08-19T19:09:34.302Z,99205.66
2022-08-19T19:12:03.825Z,99204.19
2022-08-19T19:14:49.181Z,99191.34
2022-08-19T19:17:17.791Z,99216.87
2022-08-19T19:19:45.725Z,99238.91
2022-08-19T19:22:18.390Z,99233.72
2022-08-19T19:24:46.322Z,99167.09
2022-08-19T19:27:15.669Z,99140.09
2022-08-19T19:29:43.122Z,99142.88
2022-08-19T19:32:19.907Z,99163.56
2022-08-19T19:34:47.924Z,99151.91
2022-08-19T19:37:17.037Z,99140.19
2022-08-19T19:39:46.526Z,99136.91
2022-08-19T19:42:20.108Z,99142.78
2022-08-19T19:44:50.649Z,99132.03
2022-08-19T19:47:19.335Z,99129.31
2022-08-19T19:50:13.852Z,99131.69
2022-08-19T19:52:39.943Z,99122.41
2022-08-19T19:55:09.642Z,99123.28
2022-08-19T19:57:39.384Z,99138.63
2022-08-19T20:00:09.484Z,99145.81
2022-08-19T20:02:39.900Z,99153.63
2022-08-19T20:05:07.810Z,99173.31
2022-08-19T20:07:54.180Z,99393.84
2022-08-19T20:10:22.258Z,99367.34
2022-08-19T20:12:52.040Z,99359.50
2022-08-19T20:15:19.475Z,99396.69
2022-08-19T20:17:47.666Z,99444.50
2022-08-19T20:20:16.824Z,99444.97
2022-08-19T20:22:44.551Z,99434.75
2022-08-19T20:25:13.116Z,99444.91
2022-08-19T20:27:41.497Z,99447.66
2022-08-19T20:30:13.690Z,99457.38
2022-08-19T20:32:48.212Z,99451.47
2022-08-19T20:35:18.815Z,99448.03
2022-08-19T20:37:46.978Z,99461.88
2022-08-19T20:40:16.423Z,99476.56
2022-08-19T20:42:53.398Z,99493.28
2022-08-19T20:45:33.613Z,99499.63
2022-08-19T20:48:05.416Z,99480.50
2022-08-19T20:50:35.308Z,99482.91
2022-08-19T20:53:14.890Z,99472.19
2022-08-19T20:55:49.214Z,99483.97
2022-08-19T20:58:19.662Z,99469.38
2022-08-19T21:00:51.370Z,99490.41
2022-08-19T21:03:23.124Z,99467.13
2022-08-19T21:05:50.950Z,99448.91
2022-08-19T21:08:21.235Z,99452.13
2022-08-19T21:10:50.563Z,99451.63
2022-08-19T21:13:20.052Z,99446.00
2022-08-19T21:15:48.274Z,99440.06
2022-08-19T21:18:17.469Z,99430.59
2022-08-19T21:20:49.722Z,99402.88
2022-08-19T21:23:23.522Z,99385.81
2022-08-19T21:25:54.994Z,99352.03
2022-08-19T21:28:34.499Z,99325.63
2022-08-19T21:31:05.875Z,99301.59
2022-08-19T21:33:33.772Z,99276.75
2022-08-19T21:36:01.352Z,99292.34
2022-08-19T21:38:28.923Z,99295.16
2022-08-19T21:40:56.895Z,99291.84
2022-08-19T21:43:24.766Z,99261.00
2022-08-19T21:45:52.594Z,99256.16
2022-08-19T21:48:23.302Z,99274.53
2022-08-19T21:50:51.006Z,99248.16
2022-08-19T21:53:19.143Z,99225.59
2022-08-19T21:55:53.575Z,99216.25
2022-08-19T21:58:28.187Z,99222.34
2022-08-19T22:01:00.008Z,99219.22
2022-08-19T22:03:28.378Z,99213.00
2022-08-19T22:05:56.024Z,99208.66
2022-08-19T22:08:23.684Z,99193.19
2022-08-19T22:10:53.394Z,99163.53
2022-08-19T22:13:20.877Z,99143.53
2022-08-19T22:15:50.441Z,99167.38
2022-08-19T22:18:19.121Z,99136.06
2022-08-19T22:20:47.854Z,99164.66
2022-08-19T22:23:15.315Z,99171.28
2022-08-19T22:25:46.567Z,99171.31
2022-08-19T22:28:18.738Z,99153.47
2022-08-19T22:30:56.291Z,99158.66
2022-08-19T22:33:25.903Z,99165.00
2022-08-19T22:35:53.743Z,99163.25
2022-08-19T22:38:22.034Z,99145.91
2022-08-19T22:40:50.937Z,99137.09
2022-08-19T22:43:21.635Z,99135.22
2022-08-19T22:45:51.067Z,99149.69
2022-08-19T22:48:21.052Z,99143.22
2022-08-19T22:51:08.488Z,99121.88
2022-08-19T22:53:38.823Z,99118.59
2022-08-19T22:56:09.928Z,99097.88
2022-08-19T22:58:40.928Z,99106.63
2022-08-19T23:01:08.796Z,99113.28
2022-08-19T23:03:36.382Z,99102.13
2022-08-19T23:06:04.125Z,99101.28
2022-08-19T23:08:32.131Z,99101.84
2022-08-19T23:11:02.290Z,99106.16
2022-08-19T23:13:37.519Z,99110.13
2022-08-19T23:16:08.205Z,99117.69
2022-08-19T23:18:35.676Z,99111.59
2022-08-19T23:21:04.486Z,99111.53
2022-08-19T23:23:36.713Z,99111.91
2022-08-19T23:26:10.421Z,99114.00
2022-08-19T23:28:58.399Z,99118.88
2022-08-19T23:31:26.873Z,99114.38
2022-08-19T23:33:54.727Z,99109.56
2022-08-19T23:36:22.974Z,99105.16
2022-08-19T23:38:52.296Z,99095.91
2022-08-19T23:41:22.041Z,99088.44
2022-08-19T23:43:50.862Z,99097.19
2022-08-19T23:46:27.945Z,99104.53
2022-08-19T23:48:56.869Z,99091.44
2022-08-19T23:51:26.755Z,99094.37
2022-08-19T23:53:54.505Z,99091.84
2022-08-19T23:56:22.009Z,99088.13
2022-08-19T23:58:49.807Z,99092.41
